KDVN/DVN METAR and TAF weather

Enter ICAO airport designator
Station Type Date Time Source
KDVN METAR 2018/10/21 03:52 UTC NOAA

KDVN 210352Z AUTO 28005KT 10SM CLR M02/M07 A3038 RMK AO2 SLP290 T10171067


Station Type Date Time Source
KDVN Decoded METAR 2018/10/21 03:52 UTC NOAA

DAVENPORT MUNICIPAL AIRPORT, IA, United States (KDVN) 41-37N 90-35W 228M
Oct 20, 2018 - 11:52 PM EDT / 2018.10.21 0352 UTC
Wind: from the W (280 degrees) at 6 MPH (5 KT):0
Visibility: 10 mile(s):0
Sky conditions: clear
Temperature: 28.9 F (-1.7 C)
Windchill: 23 F (-5 C):1
Dew Point: 19.9 F (-6.7 C)
Relative Humidity: 68%
Pressure (altimeter): 30.38 in. Hg (1028 hPa)
ob: KDVN 210352Z AUTO 28005KT 10SM CLR M02/M07 A3038 RMK AO2 SLP290 T10171067
cycle: 4

Station Type Date Time Source
KDVN TAF UTC NOAA

Error!


Example: see airport list